sensor_id;sensor_type;location;lat;lon;timestamp;P1;durP1;ratioP1;P2;durP2;ratioP2
59434;SDS011;45241;49.768;8.636;2023-12-20T00:01:23;20.25;;;12.00;;
59434;SDS011;45241;49.768;8.636;2023-12-20T00:03:48;19.63;;;11.45;;
59434;SDS011;45241;49.768;8.636;2023-12-20T00:06:13;18.23;;;11.82;;
59434;SDS011;45241;49.768;8.636;2023-12-20T00:08:39;19.75;;;11.27;;
59434;SDS011;45241;49.768;8.636;2023-12-20T00:11:04;19.08;;;11.45;;
59434;SDS011;45241;49.768;8.636;2023-12-20T00:13:29;20.05;;;10.88;;
59434;SDS011;45241;49.768;8.636;2023-12-20T00:15:54;19.38;;;10.45;;
59434;SDS011;45241;49.768;8.636;2023-12-20T00:18:20;17.70;;;10.27;;
59434;SDS011;45241;49.768;8.636;2023-12-20T00:20:45;15.65;;;9.98;;
59434;SDS011;45241;49.768;8.636;2023-12-20T00:23:10;16.70;;;10.30;;
59434;SDS011;45241;49.768;8.636;2023-12-20T00:25:36;15.13;;;9.57;;
59434;SDS011;45241;49.768;8.636;2023-12-20T00:28:01;18.98;;;9.80;;
59434;SDS011;45241;49.768;8.636;2023-12-20T00:30:27;15.60;;;10.30;;
59434;SDS011;45241;49.768;8.636;2023-12-20T00:32:52;15.05;;;10.07;;
59434;SDS011;45241;49.768;8.636;2023-12-20T00:35:18;16.88;;;10.20;;
59434;SDS011;45241;49.768;8.636;2023-12-20T00:37:43;17.23;;;11.10;;
59434;SDS011;45241;49.768;8.636;2023-12-20T00:40:09;18.45;;;10.88;;
59434;SDS011;45241;49.768;8.636;2023-12-20T00:42:35;15.52;;;9.57;;
59434;SDS011;45241;49.768;8.636;2023-12-20T00:45:03;16.73;;;10.90;;
59434;SDS011;45241;49.768;8.636;2023-12-20T00:47:30;18.13;;;10.35;;
59434;SDS011;45241;49.768;8.636;2023-12-20T00:49:55;15.80;;;9.85;;
59434;SDS011;45241;49.768;8.636;2023-12-20T00:52:21;16.27;;;9.43;;
59434;SDS011;45241;49.768;8.636;2023-12-20T00:54:47;15.02;;;9.15;;
59434;SDS011;45241;49.768;8.636;2023-12-20T00:57:13;14.75;;;9.43;;
59434;SDS011;45241;49.768;8.636;2023-12-20T00:59:38;14.48;;;8.63;;
59434;SDS011;45241;49.768;8.636;2023-12-20T01:02:03;13.63;;;8.32;;
59434;SDS011;45241;49.768;8.636;2023-12-20T01:04:29;12.48;;;7.95;;
59434;SDS011;45241;49.768;8.636;2023-12-20T01:06:54;12.70;;;7.90;;
59434;SDS011;45241;49.768;8.636;2023-12-20T01:09:19;11.77;;;7.70;;
59434;SDS011;45241;49.768;8.636;2023-12-20T01:11:45;12.73;;;7.68;;
59434;SDS011;45241;49.768;8.636;2023-12-20T01:14:11;14.23;;;8.02;;
59434;SDS011;45241;49.768;8.636;2023-12-20T01:16:37;11.38;;;7.47;;
59434;SDS011;45241;49.768;8.636;2023-12-20T01:19:02;12.05;;;7.50;;
59434;SDS011;45241;49.768;8.636;2023-12-20T01:21:27;13.10;;;7.13;;
59434;SDS011;45241;49.768;8.636;2023-12-20T01:23:53;9.15;;;6.60;;
59434;SDS011;45241;49.768;8.636;2023-12-20T01:26:18;9.00;;;5.72;;
59434;SDS011;45241;49.768;8.636;2023-12-20T01:28:43;7.63;;;5.25;;
59434;SDS011;45241;49.768;8.636;2023-12-20T01:31:08;8.30;;;5.85;;
59434;SDS011;45241;49.768;8.636;2023-12-20T01:33:34;8.18;;;5.53;;
59434;SDS011;45241;49.768;8.636;2023-12-20T01:36:00;9.15;;;5.60;;
59434;SDS011;45241;49.768;8.636;2023-12-20T01:38:25;11.18;;;6.32;;
59434;SDS011;45241;49.768;8.636;2023-12-20T01:40:51;10.88;;;6.72;;
59434;SDS011;45241;49.768;8.636;2023-12-20T01:43:16;11.55;;;7.13;;
59434;SDS011;45241;49.768;8.636;2023-12-20T01:45:41;11.05;;;7.00;;
59434;SDS011;45241;49.768;8.636;2023-12-20T01:48:07;11.23;;;6.80;;
59434;SDS011;45241;49.768;8.636;2023-12-20T01:50:33;10.05;;;6.57;;
59434;SDS011;45241;49.768;8.636;2023-12-20T01:53:02;8.20;;;5.60;;
59434;SDS011;45241;49.768;8.636;2023-12-20T01:55:29;7.13;;;4.82;;
59434;SDS011;45241;49.768;8.636;2023-12-20T01:57:57;7.50;;;4.90;;
59434;SDS011;45241;49.768;8.636;2023-12-20T02:00:24;7.85;;;4.20;;
59434;SDS011;45241;49.768;8.636;2023-12-20T02:02:52;7.03;;;4.25;;
59434;SDS011;45241;49.768;8.636;2023-12-20T02:05:20;4.90;;;3.70;;
59434;SDS011;45241;49.768;8.636;2023-12-20T02:07:46;6.80;;;3.50;;
59434;SDS011;45241;49.768;8.636;2023-12-20T02:10:11;5.40;;;3.67;;
59434;SDS011;45241;49.768;8.636;2023-12-20T02:12:37;7.05;;;4.07;;
59434;SDS011;45241;49.768;8.636;2023-12-20T02:15:03;8.30;;;3.92;;
59434;SDS011;45241;49.768;8.636;2023-12-20T02:17:29;4.93;;;3.50;;
59434;SDS011;45241;49.768;8.636;2023-12-20T02:19:55;4.07;;;2.70;;
59434;SDS011;45241;49.768;8.636;2023-12-20T02:22:20;5.13;;;3.30;;
59434;SDS011;45241;49.768;8.636;2023-12-20T02:24:46;4.38;;;3.35;;
59434;SDS011;45241;49.768;8.636;2023-12-20T02:27:11;4.53;;;3.03;;
59434;SDS011;45241;49.768;8.636;2023-12-20T02:29:37;7.22;;;3.80;;
59434;SDS011;45241;49.768;8.636;2023-12-20T02:32:02;5.85;;;3.67;;
59434;SDS011;45241;49.768;8.636;2023-12-20T02:34:28;7.05;;;4.65;;
59434;SDS011;45241;49.768;8.636;2023-12-20T02:36:53;8.15;;;5.22;;
59434;SDS011;45241;49.768;8.636;2023-12-20T02:39:19;10.77;;;5.63;;
59434;SDS011;45241;49.768;8.636;2023-12-20T02:41:46;8.27;;;4.97;;
59434;SDS011;45241;49.768;8.636;2023-12-20T02:44:12;7.70;;;4.80;;
59434;SDS011;45241;49.768;8.636;2023-12-20T02:46:37;6.72;;;4.35;;
59434;SDS011;45241;49.768;8.636;2023-12-20T02:49:02;6.88;;;4.88;;
59434;SDS011;45241;49.768;8.636;2023-12-20T02:51:27;6.80;;;4.63;;
59434;SDS011;45241;49.768;8.636;2023-12-20T02:53:53;6.43;;;4.35;;
59434;SDS011;45241;49.768;8.636;2023-12-20T02:56:18;5.72;;;3.80;;
59434;SDS011;45241;49.768;8.636;2023-12-20T02:58:43;5.57;;;4.18;;
59434;SDS011;45241;49.768;8.636;2023-12-20T03:01:09;7.03;;;4.05;;
59434;SDS011;45241;49.768;8.636;2023-12-20T03:03:34;4.85;;;3.45;;
59434;SDS011;45241;49.768;8.636;2023-12-20T03:05:59;4.70;;;3.67;;
59434;SDS011;45241;49.768;8.636;2023-12-20T03:08:26;4.70;;;3.65;;
59434;SDS011;45241;49.768;8.636;2023-12-20T03:10:51;5.35;;;3.75;;
59434;SDS011;45241;49.768;8.636;2023-12-20T03:13:18;5.13;;;3.53;;
59434;SDS011;45241;49.768;8.636;2023-12-20T03:15:43;5.45;;;3.72;;
59434;SDS011;45241;49.768;8.636;2023-12-20T03:18:08;4.70;;;3.38;;
59434;SDS011;45241;49.768;8.636;2023-12-20T03:20:34;5.20;;;3.70;;
59434;SDS011;45241;49.768;8.636;2023-12-20T03:23:02;4.10;;;3.40;;
59434;SDS011;45241;49.768;8.636;2023-12-20T03:25:28;5.80;;;3.90;;
59434;SDS011;45241;49.768;8.636;2023-12-20T03:27:53;5.28;;;4.07;;
59434;SDS011;45241;49.768;8.636;2023-12-20T03:30:19;4.90;;;3.90;;
59434;SDS011;45241;49.768;8.636;2023-12-20T03:32:44;4.93;;;3.70;;
59434;SDS011;45241;49.768;8.636;2023-12-20T03:35:10;5.22;;;3.80;;
59434;SDS011;45241;49.768;8.636;2023-12-20T03:37:36;5.43;;;3.85;;
59434;SDS011;45241;49.768;8.636;2023-12-20T03:40:01;5.28;;;3.78;;
59434;SDS011;45241;49.768;8.636;2023-12-20T03:42:27;4.32;;;3.50;;
59434;SDS011;45241;49.768;8.636;2023-12-20T03:44:53;4.88;;;3.88;;
59434;SDS011;45241;49.768;8.636;2023-12-20T03:47:18;5.32;;;4.07;;
59434;SDS011;45241;49.768;8.636;2023-12-20T03:49:43;5.45;;;3.95;;
59434;SDS011;45241;49.768;8.636;2023-12-20T03:52:08;5.30;;;4.18;;
59434;SDS011;45241;49.768;8.636;2023-12-20T03:54:36;4.72;;;3.60;;
59434;SDS011;45241;49.768;8.636;2023-12-20T03:57:02;6.18;;;4.40;;
59434;SDS011;45241;49.768;8.636;2023-12-20T03:59:27;4.90;;;3.65;;
59434;SDS011;45241;49.768;8.636;2023-12-20T04:01:52;5.22;;;3.75;;
59434;SDS011;45241;49.768;8.636;2023-12-20T04:04:18;4.53;;;3.75;;
59434;SDS011;45241;49.768;8.636;2023-12-20T04:06:44;5.85;;;3.80;;
59434;SDS011;45241;49.768;8.636;2023-12-20T04:09:09;6.07;;;3.60;;
59434;SDS011;45241;49.768;8.636;2023-12-20T04:11:34;5.72;;;4.00;;
59434;SDS011;45241;49.768;8.636;2023-12-20T04:14:00;4.97;;;3.50;;
59434;SDS011;45241;49.768;8.636;2023-12-20T04:16:25;5.95;;;3.70;;
59434;SDS011;45241;49.768;8.636;2023-12-20T04:18:51;5.45;;;3.92;;
59434;SDS011;45241;49.768;8.636;2023-12-20T04:21:16;5.38;;;3.70;;
59434;SDS011;45241;49.768;8.636;2023-12-20T04:23:43;7.55;;;4.18;;
59434;SDS011;45241;49.768;8.636;2023-12-20T04:26:08;6.40;;;4.70;;
59434;SDS011;45241;49.768;8.636;2023-12-20T04:28:34;8.07;;;5.38;;
59434;SDS011;45241;49.768;8.636;2023-12-20T04:30:59;5.95;;;4.68;;
59434;SDS011;45241;49.768;8.636;2023-12-20T04:33:24;5.88;;;4.57;;
59434;SDS011;45241;49.768;8.636;2023-12-20T04:35:50;7.05;;;4.75;;
59434;SDS011;45241;49.768;8.636;2023-12-20T04:38:15;7.50;;;4.55;;
59434;SDS011;45241;49.768;8.636;2023-12-20T04:40:40;6.15;;;4.82;;
59434;SDS011;45241;49.768;8.636;2023-12-20T04:43:06;5.47;;;4.20;;
59434;SDS011;45241;49.768;8.636;2023-12-20T04:45:32;5.40;;;4.32;;
59434;SDS011;45241;49.768;8.636;2023-12-20T04:47:57;7.53;;;4.85;;
59434;SDS011;45241;49.768;8.636;2023-12-20T04:50:23;5.88;;;4.18;;
59434;SDS011;45241;49.768;8.636;2023-12-20T04:52:48;6.70;;;4.90;;
59434;SDS011;45241;49.768;8.636;2023-12-20T04:55:14;6.82;;;5.05;;
59434;SDS011;45241;49.768;8.636;2023-12-20T04:57:39;6.10;;;4.28;;
59434;SDS011;45241;49.768;8.636;2023-12-20T05:00:05;6.68;;;4.90;;
59434;SDS011;45241;49.768;8.636;2023-12-20T05:02:31;8.32;;;5.22;;
59434;SDS011;45241;49.768;8.636;2023-12-20T05:04:56;7.38;;;5.30;;
59434;SDS011;45241;49.768;8.636;2023-12-20T05:07:21;7.47;;;5.55;;
59434;SDS011;45241;49.768;8.636;2023-12-20T05:09:47;7.15;;;5.05;;
59434;SDS011;45241;49.768;8.636;2023-12-20T05:12:12;7.82;;;5.03;;
59434;SDS011;45241;49.768;8.636;2023-12-20T05:14:37;5.90;;;4.60;;
59434;SDS011;45241;49.768;8.636;2023-12-20T05:17:03;6.65;;;4.82;;
59434;SDS011;45241;49.768;8.636;2023-12-20T05:19:28;6.28;;;4.68;;
59434;SDS011;45241;49.768;8.636;2023-12-20T05:21:54;6.45;;;4.38;;
59434;SDS011;45241;49.768;8.636;2023-12-20T05:24:19;6.47;;;4.97;;
59434;SDS011;45241;49.768;8.636;2023-12-20T05:26:44;6.75;;;5.00;;
59434;SDS011;45241;49.768;8.636;2023-12-20T05:29:09;6.53;;;4.93;;
59434;SDS011;45241;49.768;8.636;2023-12-20T05:31:35;6.97;;;5.07;;
59434;SDS011;45241;49.768;8.636;2023-12-20T05:34:00;8.07;;;5.25;;
59434;SDS011;45241;49.768;8.636;2023-12-20T05:36:25;6.53;;;4.82;;
59434;SDS011;45241;49.768;8.636;2023-12-20T05:38:51;5.70;;;4.57;;
59434;SDS011;45241;49.768;8.636;2023-12-20T05:41:16;6.35;;;5.10;;
59434;SDS011;45241;49.768;8.636;2023-12-20T05:43:43;6.22;;;4.50;;
59434;SDS011;45241;49.768;8.636;2023-12-20T05:46:09;5.70;;;4.63;;
59434;SDS011;45241;49.768;8.636;2023-12-20T05:48:36;6.10;;;4.85;;
59434;SDS011;45241;49.768;8.636;2023-12-20T05:51:01;6.05;;;4.30;;
59434;SDS011;45241;49.768;8.636;2023-12-20T05:53:26;5.80;;;4.75;;
59434;SDS011;45241;49.768;8.636;2023-12-20T05:55:52;5.90;;;4.38;;
59434;SDS011;45241;49.768;8.636;2023-12-20T05:58:17;6.43;;;3.97;;
59434;SDS011;45241;49.768;8.636;2023-12-20T06:00:43;4.88;;;3.92;;
59434;SDS011;45241;49.768;8.636;2023-12-20T06:03:08;6.55;;;4.38;;
59434;SDS011;45241;49.768;8.636;2023-12-20T06:05:33;6.68;;;3.83;;
59434;SDS011;45241;49.768;8.636;2023-12-20T06:07:58;5.13;;;3.67;;
59434;SDS011;45241;49.768;8.636;2023-12-20T06:10:27;4.95;;;3.75;;
59434;SDS011;45241;49.768;8.636;2023-12-20T06:12:53;5.18;;;3.75;;
59434;SDS011;45241;49.768;8.636;2023-12-20T06:15:18;7.20;;;4.18;;
59434;SDS011;45241;49.768;8.636;2023-12-20T06:17:43;6.05;;;4.20;;
59434;SDS011;45241;49.768;8.636;2023-12-20T06:20:09;5.60;;;3.40;;
59434;SDS011;45241;49.768;8.636;2023-12-20T06:22:35;5.80;;;3.90;;
59434;SDS011;45241;49.768;8.636;2023-12-20T06:25:01;5.53;;;4.07;;
59434;SDS011;45241;49.768;8.636;2023-12-20T06:27:28;5.40;;;3.30;;
59434;SDS011;45241;49.768;8.636;2023-12-20T06:29:53;4.82;;;3.00;;
59434;SDS011;45241;49.768;8.636;2023-12-20T06:32:19;7.18;;;3.00;;
59434;SDS011;45241;49.768;8.636;2023-12-20T06:34:44;12.10;;;3.60;;
59434;SDS011;45241;49.768;8.636;2023-12-20T06:37:09;5.18;;;2.50;;
59434;SDS011;45241;49.768;8.636;2023-12-20T06:39:35;7.85;;;2.50;;
59434;SDS011;45241;49.768;8.636;2023-12-20T06:42:00;3.67;;;2.72;;
59434;SDS011;45241;49.768;8.636;2023-12-20T06:44:26;6.35;;;2.90;;
59434;SDS011;45241;49.768;8.636;2023-12-20T06:46:51;6.80;;;2.47;;
59434;SDS011;45241;49.768;8.636;2023-12-20T06:49:16;5.43;;;2.33;;
59434;SDS011;45241;49.768;8.636;2023-12-20T06:51:42;3.50;;;2.35;;
59434;SDS011;45241;49.768;8.636;2023-12-20T06:54:07;3.13;;;2.10;;
59434;SDS011;45241;49.768;8.636;2023-12-20T06:56:32;6.45;;;2.17;;
59434;SDS011;45241;49.768;8.636;2023-12-20T06:58:58;7.47;;;2.45;;
59434;SDS011;45241;49.768;8.636;2023-12-20T07:01:23;5.28;;;2.30;;
59434;SDS011;45241;49.768;8.636;2023-12-20T07:03:49;6.50;;;2.28;;
59434;SDS011;45241;49.768;8.636;2023-12-20T07:06:14;7.47;;;2.88;;
59434;SDS011;45241;49.768;8.636;2023-12-20T07:08:41;3.78;;;2.50;;
59434;SDS011;45241;49.768;8.636;2023-12-20T07:11:06;6.25;;;2.42;;
59434;SDS011;45241;49.768;8.636;2023-12-20T07:13:32;4.68;;;2.60;;
59434;SDS011;45241;49.768;8.636;2023-12-20T07:15:57;5.50;;;2.70;;
59434;SDS011;45241;49.768;8.636;2023-12-20T07:18:25;10.15;;;2.45;;
59434;SDS011;45241;49.768;8.636;2023-12-20T07:20:51;8.95;;;2.72;;
59434;SDS011;45241;49.768;8.636;2023-12-20T07:23:16;4.47;;;2.25;;
59434;SDS011;45241;49.768;8.636;2023-12-20T07:25:41;4.45;;;2.60;;
59434;SDS011;45241;49.768;8.636;2023-12-20T07:28:06;8.10;;;2.78;;
59434;SDS011;45241;49.768;8.636;2023-12-20T07:30:32;4.88;;;2.80;;
59434;SDS011;45241;49.768;8.636;2023-12-20T07:32:57;4.93;;;2.40;;
59434;SDS011;45241;49.768;8.636;2023-12-20T07:35:23;3.78;;;2.63;;
59434;SDS011;45241;49.768;8.636;2023-12-20T07:37:48;6.75;;;2.78;;
59434;SDS011;45241;49.768;8.636;2023-12-20T07:40:14;5.30;;;2.70;;
59434;SDS011;45241;49.768;8.636;2023-12-20T07:42:41;8.68;;;3.03;;
59434;SDS011;45241;49.768;8.636;2023-12-20T07:45:07;5.05;;;2.67;;
59434;SDS011;45241;49.768;8.636;2023-12-20T07:47:32;7.07;;;2.35;;
59434;SDS011;45241;49.768;8.636;2023-12-20T07:50:00;4.97;;;2.08;;
59434;SDS011;45241;49.768;8.636;2023-12-20T07:52:25;7.57;;;3.10;;
59434;SDS011;45241;49.768;8.636;2023-12-20T07:54:51;3.80;;;2.10;;
59434;SDS011;45241;49.768;8.636;2023-12-20T07:57:16;3.88;;;2.30;;
59434;SDS011;45241;49.768;8.636;2023-12-20T07:59:41;5.78;;;2.05;;
59434;SDS011;45241;49.768;8.636;2023-12-20T08:02:07;6.43;;;2.03;;
59434;SDS011;45241;49.768;8.636;2023-12-20T08:04:32;7.78;;;2.30;;
59434;SDS011;45241;49.768;8.636;2023-12-20T08:06:58;4.85;;;1.60;;
59434;SDS011;45241;49.768;8.636;2023-12-20T08:09:23;6.05;;;2.20;;
59434;SDS011;45241;49.768;8.636;2023-12-20T08:11:49;5.55;;;2.13;;
59434;SDS011;45241;49.768;8.636;2023-12-20T08:14:14;9.25;;;2.58;;
59434;SDS011;45241;49.768;8.636;2023-12-20T08:16:40;8.75;;;2.50;;
59434;SDS011;45241;49.768;8.636;2023-12-20T08:19:05;7.93;;;2.63;;
59434;SDS011;45241;49.768;8.636;2023-12-20T08:21:31;6.38;;;2.20;;
59434;SDS011;45241;49.768;8.636;2023-12-20T08:23:56;5.70;;;2.33;;
59434;SDS011;45241;49.768;8.636;2023-12-20T08:26:22;5.70;;;1.92;;
59434;SDS011;45241;49.768;8.636;2023-12-20T08:28:48;4.82;;;2.50;;
59434;SDS011;45241;49.768;8.636;2023-12-20T08:31:16;8.52;;;2.20;;
59434;SDS011;45241;49.768;8.636;2023-12-20T08:33:44;5.82;;;2.40;;
59434;SDS011;45241;49.768;8.636;2023-12-20T08:36:10;9.25;;;2.63;;
59434;SDS011;45241;49.768;8.636;2023-12-20T08:38:36;6.95;;;2.78;;
59434;SDS011;45241;49.768;8.636;2023-12-20T08:41:01;7.68;;;2.95;;
59434;SDS011;45241;49.768;8.636;2023-12-20T08:43:28;8.02;;;2.80;;
59434;SDS011;45241;49.768;8.636;2023-12-20T08:45:53;5.97;;;2.67;;
59434;SDS011;45241;49.768;8.636;2023-12-20T08:48:19;7.60;;;2.55;;
59434;SDS011;45241;49.768;8.636;2023-12-20T08:50:44;5.78;;;2.30;;
59434;SDS011;45241;49.768;8.636;2023-12-20T08:53:09;5.28;;;2.30;;
59434;SDS011;45241;49.768;8.636;2023-12-20T08:55:35;5.80;;;3.00;;
59434;SDS011;45241;49.768;8.636;2023-12-20T08:58:00;4.88;;;2.13;;
59434;SDS011;45241;49.768;8.636;2023-12-20T09:00:25;7.90;;;2.60;;
59434;SDS011;45241;49.768;8.636;2023-12-20T09:02:52;5.90;;;2.60;;
59434;SDS011;45241;49.768;8.636;2023-12-20T09:05:19;5.57;;;2.65;;
59434;SDS011;45241;49.768;8.636;2023-12-20T09:07:45;7.75;;;2.50;;
59434;SDS011;45241;49.768;8.636;2023-12-20T09:10:10;7.10;;;2.90;;
59434;SDS011;45241;49.768;8.636;2023-12-20T09:12:35;5.72;;;2.78;;
59434;SDS011;45241;49.768;8.636;2023-12-20T09:15:03;8.02;;;2.92;;
59434;SDS011;45241;49.768;8.636;2023-12-20T09:17:28;8.25;;;2.80;;
59434;SDS011;45241;49.768;8.636;2023-12-20T09:19:53;8.13;;;2.90;;
59434;SDS011;45241;49.768;8.636;2023-12-20T09:22:20;5.85;;;2.90;;
59434;SDS011;45241;49.768;8.636;2023-12-20T09:24:46;9.35;;;2.97;;
59434;SDS011;45241;49.768;8.636;2023-12-20T09:27:11;6.45;;;3.00;;
59434;SDS011;45241;49.768;8.636;2023-12-20T09:29:36;7.18;;;3.00;;
59434;SDS011;45241;49.768;8.636;2023-12-20T09:32:02;5.35;;;2.88;;
59434;SDS011;45241;49.768;8.636;2023-12-20T09:34:27;5.25;;;2.55;;
59434;SDS011;45241;49.768;8.636;2023-12-20T09:36:53;8.73;;;3.33;;
59434;SDS011;45241;49.768;8.636;2023-12-20T09:39:19;9.88;;;3.05;;
59434;SDS011;45241;49.768;8.636;2023-12-20T09:41:45;6.72;;;3.20;;
59434;SDS011;45241;49.768;8.636;2023-12-20T09:44:19;8.32;;;3.13;;
59434;SDS011;45241;49.768;8.636;2023-12-20T09:46:45;7.07;;;2.80;;
59434;SDS011;45241;49.768;8.636;2023-12-20T09:49:14;6.85;;;3.10;;
59434;SDS011;45241;49.768;8.636;2023-12-20T09:51:42;4.57;;;2.67;;
59434;SDS011;45241;49.768;8.636;2023-12-20T09:54:07;9.25;;;2.88;;
59434;SDS011;45241;49.768;8.636;2023-12-20T09:56:34;7.40;;;2.75;;
59434;SDS011;45241;49.768;8.636;2023-12-20T09:58:59;7.90;;;2.85;;
59434;SDS011;45241;49.768;8.636;2023-12-20T10:01:25;6.32;;;2.83;;
59434;SDS011;45241;49.768;8.636;2023-12-20T10:03:51;6.32;;;2.70;;
59434;SDS011;45241;49.768;8.636;2023-12-20T10:06:19;12.13;;;2.95;;
59434;SDS011;45241;49.768;8.636;2023-12-20T10:08:45;8.02;;;2.75;;
59434;SDS011;45241;49.768;8.636;2023-12-20T10:11:11;10.23;;;2.90;;
59434;SDS011;45241;49.768;8.636;2023-12-20T10:13:39;4.80;;;2.83;;
59434;SDS011;45241;49.768;8.636;2023-12-20T10:16:06;8.35;;;2.55;;
59434;SDS011;45241;49.768;8.636;2023-12-20T10:18:35;8.10;;;2.97;;
59434;SDS011;45241;49.768;8.636;2023-12-20T10:21:01;10.82;;;2.63;;
59434;SDS011;45241;49.768;8.636;2023-12-20T10:23:26;7.07;;;2.80;;
59434;SDS011;45241;49.768;8.636;2023-12-20T10:25:58;8.80;;;2.58;;
59434;SDS011;45241;49.768;8.636;2023-12-20T10:28:24;11.57;;;3.10;;
59434;SDS011;45241;49.768;8.636;2023-12-20T10:30:53;11.00;;;2.60;;
59434;SDS011;45241;49.768;8.636;2023-12-20T10:33:25;6.75;;;2.58;;
59434;SDS011;45241;49.768;8.636;2023-12-20T10:35:52;10.18;;;2.88;;
59434;SDS011;45241;49.768;8.636;2023-12-20T10:38:18;7.75;;;2.35;;
59434;SDS011;45241;49.768;8.636;2023-12-20T10:40:44;7.63;;;2.70;;
59434;SDS011;45241;49.768;8.636;2023-12-20T10:43:10;8.65;;;2.30;;
59434;SDS011;45241;49.768;8.636;2023-12-20T10:45:36;8.23;;;2.92;;
59434;SDS011;45241;49.768;8.636;2023-12-20T10:48:01;6.15;;;2.45;;
59434;SDS011;45241;49.768;8.636;2023-12-20T10:50:27;8.02;;;2.53;;
59434;SDS011;45241;49.768;8.636;2023-12-20T10:52:54;6.47;;;2.33;;
59434;SDS011;45241;49.768;8.636;2023-12-20T10:55:21;11.05;;;2.47;;
59434;SDS011;45241;49.768;8.636;2023-12-20T10:57:47;6.15;;;2.40;;
59434;SDS011;45241;49.768;8.636;2023-12-20T11:00:16;6.60;;;2.53;;
59434;SDS011;45241;49.768;8.636;2023-12-20T11:02:42;9.02;;;2.22;;
59434;SDS011;45241;49.768;8.636;2023-12-20T11:16:21;8.77;;;2.50;;
59434;SDS011;45241;49.768;8.636;2023-12-20T11:18:47;5.43;;;2.10;;
59434;SDS011;45241;49.768;8.636;2023-12-20T11:21:12;9.40;;;2.53;;
59434;SDS011;45241;49.768;8.636;2023-12-20T11:23:39;10.73;;;2.80;;
59434;SDS011;45241;49.768;8.636;2023-12-20T11:26:07;8.93;;;2.17;;
59434;SDS011;45241;49.768;8.636;2023-12-20T11:28:32;7.85;;;2.20;;
59434;SDS011;45241;49.768;8.636;2023-12-20T11:30:58;8.90;;;2.50;;
59434;SDS011;45241;49.768;8.636;2023-12-20T11:33:26;5.40;;;2.15;;
59434;SDS011;45241;49.768;8.636;2023-12-20T11:35:55;8.43;;;2.55;;
59434;SDS011;45241;49.768;8.636;2023-12-20T11:38:21;9.70;;;2.70;;
59434;SDS011;45241;49.768;8.636;2023-12-20T11:40:49;9.43;;;2.40;;
59434;SDS011;45241;49.768;8.636;2023-12-20T11:43:31;9.20;;;2.80;;
59434;SDS011;45241;49.768;8.636;2023-12-20T11:46:04;8.23;;;2.83;;
59434;SDS011;45241;49.768;8.636;2023-12-20T11:48:30;9.15;;;2.72;;
59434;SDS011;45241;49.768;8.636;2023-12-20T11:50:56;10.23;;;2.90;;
59434;SDS011;45241;49.768;8.636;2023-12-20T11:53:22;9.43;;;2.67;;
59434;SDS011;45241;49.768;8.636;2023-12-20T11:55:48;7.22;;;2.85;;
59434;SDS011;45241;49.768;8.636;2023-12-20T11:58:14;8.07;;;2.80;;
59434;SDS011;45241;49.768;8.636;2023-12-20T12:00:41;6.68;;;2.78;;
59434;SDS011;45241;49.768;8.636;2023-12-20T12:03:07;8.82;;;3.25;;
59434;SDS011;45241;49.768;8.636;2023-12-20T12:05:33;9.63;;;3.42;;
59434;SDS011;45241;49.768;8.636;2023-12-20T12:07:58;9.48;;;3.28;;
59434;SDS011;45241;49.768;8.636;2023-12-20T12:10:23;9.35;;;3.70;;
59434;SDS011;45241;49.768;8.636;2023-12-20T12:12:49;15.75;;;3.58;;
59434;SDS011;45241;49.768;8.636;2023-12-20T12:15:14;11.88;;;4.50;;
59434;SDS011;45241;49.768;8.636;2023-12-20T12:17:40;8.55;;;3.45;;
59434;SDS011;45241;49.768;8.636;2023-12-20T12:20:05;14.60;;;4.00;;
59434;SDS011;45241;49.768;8.636;2023-12-20T12:22:31;6.57;;;3.67;;
59434;SDS011;45241;49.768;8.636;2023-12-20T12:24:58;10.80;;;3.65;;
59434;SDS011;45241;49.768;8.636;2023-12-20T12:27:34;9.95;;;3.47;;
59434;SDS011;45241;49.768;8.636;2023-12-20T12:30:03;8.43;;;3.20;;
59434;SDS011;45241;49.768;8.636;2023-12-20T12:32:29;9.60;;;3.50;;
59434;SDS011;45241;49.768;8.636;2023-12-20T12:34:55;8.32;;;3.15;;
59434;SDS011;45241;49.768;8.636;2023-12-20T12:37:20;10.68;;;4.22;;
59434;SDS011;45241;49.768;8.636;2023-12-20T12:39:48;9.63;;;3.85;;
59434;SDS011;45241;49.768;8.636;2023-12-20T12:42:14;10.48;;;4.30;;
59434;SDS011;45241;49.768;8.636;2023-12-20T12:44:39;10.60;;;3.88;;
59434;SDS011;45241;49.768;8.636;2023-12-20T12:47:05;11.80;;;3.90;;
59434;SDS011;45241;49.768;8.636;2023-12-20T12:49:30;12.07;;;3.92;;
59434;SDS011;45241;49.768;8.636;2023-12-20T12:51:57;13.02;;;3.40;;
59434;SDS011;45241;49.768;8.636;2023-12-20T12:54:23;9.45;;;3.63;;
59434;SDS011;45241;49.768;8.636;2023-12-20T12:56:48;5.97;;;3.03;;
59434;SDS011;45241;49.768;8.636;2023-12-20T12:59:15;16.85;;;4.03;;
59434;SDS011;45241;49.768;8.636;2023-12-20T13:01:41;11.93;;;3.30;;
59434;SDS011;45241;49.768;8.636;2023-12-20T13:04:06;7.68;;;3.05;;
59434;SDS011;45241;49.768;8.636;2023-12-20T13:06:35;9.18;;;3.53;;
59434;SDS011;45241;49.768;8.636;2023-12-20T13:09:05;9.45;;;3.15;;
59434;SDS011;45241;49.768;8.636;2023-12-20T13:11:31;7.60;;;2.85;;
59434;SDS011;45241;49.768;8.636;2023-12-20T13:13:57;10.57;;;3.50;;
59434;SDS011;45241;49.768;8.636;2023-12-20T13:16:25;12.35;;;3.28;;
59434;SDS011;45241;49.768;8.636;2023-12-20T13:18:51;9.25;;;3.03;;
59434;SDS011;45241;49.768;8.636;2023-12-20T13:21:16;8.13;;;3.10;;
59434;SDS011;45241;49.768;8.636;2023-12-20T13:23:41;9.15;;;3.05;;
59434;SDS011;45241;49.768;8.636;2023-12-20T13:26:07;9.93;;;3.00;;
59434;SDS011;45241;49.768;8.636;2023-12-20T13:28:32;10.30;;;3.05;;
59434;SDS011;45241;49.768;8.636;2023-12-20T13:30:58;9.70;;;3.03;;
59434;SDS011;45241;49.768;8.636;2023-12-20T13:33:23;10.20;;;2.88;;
59434;SDS011;45241;49.768;8.636;2023-12-20T13:35:48;7.95;;;2.92;;
59434;SDS011;45241;49.768;8.636;2023-12-20T13:38:14;9.07;;;3.28;;
59434;SDS011;45241;49.768;8.636;2023-12-20T13:40:39;8.43;;;2.88;;
59434;SDS011;45241;49.768;8.636;2023-12-20T13:43:05;7.25;;;2.80;;
59434;SDS011;45241;49.768;8.636;2023-12-20T13:45:30;9.00;;;2.90;;
59434;SDS011;45241;49.768;8.636;2023-12-20T13:47:56;8.93;;;2.70;;
59434;SDS011;45241;49.768;8.636;2023-12-20T13:50:22;7.32;;;2.30;;
59434;SDS011;45241;49.768;8.636;2023-12-20T13:52:47;8.43;;;2.38;;
59434;SDS011;45241;49.768;8.636;2023-12-20T13:55:13;9.13;;;2.42;;
59434;SDS011;45241;49.768;8.636;2023-12-20T13:57:38;8.30;;;2.55;;
59434;SDS011;45241;49.768;8.636;2023-12-20T14:00:05;7.85;;;2.42;;
59434;SDS011;45241;49.768;8.636;2023-12-20T14:02:30;5.30;;;1.85;;
59434;SDS011;45241;49.768;8.636;2023-12-20T14:04:56;8.60;;;2.33;;
59434;SDS011;45241;49.768;8.636;2023-12-20T14:07:21;7.60;;;1.90;;
59434;SDS011;45241;49.768;8.636;2023-12-20T14:09:46;9.27;;;2.30;;
59434;SDS011;45241;49.768;8.636;2023-12-20T14:12:12;5.07;;;1.73;;
59434;SDS011;45241;49.768;8.636;2023-12-20T14:14:38;9.25;;;1.98;;
59434;SDS011;45241;49.768;8.636;2023-12-20T14:17:03;7.97;;;1.95;;
59434;SDS011;45241;49.768;8.636;2023-12-20T14:19:31;6.32;;;2.00;;
59434;SDS011;45241;49.768;8.636;2023-12-20T14:21:56;6.90;;;1.70;;
59434;SDS011;45241;49.768;8.636;2023-12-20T14:24:26;6.53;;;1.67;;
59434;SDS011;45241;49.768;8.636;2023-12-20T14:26:51;5.75;;;1.75;;
59434;SDS011;45241;49.768;8.636;2023-12-20T14:29:16;7.97;;;2.13;;
59434;SDS011;45241;49.768;8.636;2023-12-20T14:31:42;7.32;;;2.00;;
59434;SDS011;45241;49.768;8.636;2023-12-20T14:34:07;4.72;;;1.70;;
59434;SDS011;45241;49.768;8.636;2023-12-20T14:36:33;6.57;;;1.80;;
59434;SDS011;45241;49.768;8.636;2023-12-20T14:38:59;4.97;;;1.80;;
59434;SDS011;45241;49.768;8.636;2023-12-20T14:41:24;6.90;;;1.90;;
59434;SDS011;45241;49.768;8.636;2023-12-20T14:43:50;4.70;;;1.63;;
59434;SDS011;45241;49.768;8.636;2023-12-20T14:46:17;7.47;;;1.60;;
59434;SDS011;45241;49.768;8.636;2023-12-20T14:48:43;4.78;;;1.63;;